Time;durP1;ratioP1;P1;durP2;ratioP2;P2;SDS_P1;SDS_P2;PMS_P1;PMS_P2;Temp;Humidity;BMP_temperature;BMP_pressure;BME280_temperature;BME280_humidity;BME280_pressure;Samples;Min_cycle;Max_cycle;Signal;HPM_P1;HPM_P2
2022/11/16 04:00:19;;;;;;;43.38;21.95;;;10.80;99.90;;;;;;6114646;23;21058;-81
2022/11/16 04:02:45;;;;;;;47.50;23.20;;;10.80;99.90;;;;;;6180389;23;20041;-79
2022/11/16 04:24:36;;;;;;;45.83;23.08;;;10.80;99.90;;;;;;6155715;23;20020;-84
2022/11/16 04:29:50;;;;;;;43.72;23.00;;;10.80;99.90;;;;;;6155598;23;20028;-81
2022/11/16 04:37:47;;;;;;;41.67;22.75;;;10.80;99.90;;;;;;6155753;23;20037;-82
2022/11/16 04:40:21;;;;;;;42.63;23.02;;;10.80;99.90;;;;;;6155496;23;20013;-80
2022/11/16 04:42:58;;;;;;;42.95;23.08;;;10.80;99.90;;;;;;6155802;23;20092;-83
2022/11/16 04:48:11;;;;;;;46.00;24.40;;;10.80;99.90;;;;;;6155466;23;20045;-82
2022/11/16 04:50:37;;;;;;;48.13;24.55;;;10.90;99.90;;;;;;6131385;23;20089;-80
2022/11/16 04:53:04;;;;;;;40.53;22.95;;;10.80;99.90;;;;;;6157407;23;20014;-84
2022/11/16 04:55:29;;;;;;;44.83;23.90;;;10.80;99.90;;;;;;6131420;23;20055;-82
2022/11/16 04:57:55;;;;;;;42.63;23.73;;;10.80;99.90;;;;;;6155484;23;20065;-82
2022/11/16 05:00:21;;;;;;;49.65;25.42;;;10.90;99.90;;;;;;6157375;23;20021;-81
2022/11/16 05:02:46;;;;;;;48.03;25.85;;;10.80;99.90;;;;;;6157330;23;20080;-81
2022/11/16 05:05:12;;;;;;;51.10;26.10;;;10.80;99.90;;;;;;6155694;23;20455;-80
2022/11/16 05:07:39;;;;;;;50.85;25.25;;;10.80;99.90;;;;;;6156915;23;20412;-81
2022/11/16 05:10:06;;;;;;;45.38;24.40;;;10.90;99.90;;;;;;6155546;23;20017;-81
2022/11/16 05:12:32;;;;;;;48.20;26.02;;;10.90;99.90;;;;;;6130570;23;20060;-81
2022/11/16 05:14:58;;;;;;;49.35;26.30;;;10.90;99.90;;;;;;6155337;23;20021;-80
2022/11/16 05:17:25;;;;;;;46.60;25.23;;;10.90;99.90;;;;;;6155444;23;20021;-84
2022/11/16 05:22:35;;;;;;;61.92;27.38;;;10.90;99.90;;;;;;6155814;23;20044;-85
2022/11/16 05:25:01;;;;;;;53.28;26.42;;;10.90;99.90;;;;;;6157287;23;20009;-83
2022/11/16 05:27:27;;;;;;;57.60;27.60;;;10.90;99.90;;;;;;6130786;23;20104;-82
2022/11/16 05:29:54;;;;;;;44.28;24.95;;;10.80;99.90;;;;;;6155571;23;20049;-85
2022/11/16 05:32:21;;;;;;;55.45;28.25;;;10.90;99.90;;;;;;6130920;23;20018;-84
2022/11/16 05:34:46;;;;;;;58.88;28.10;;;10.90;99.90;;;;;;6155502;23;20459;-86
2022/11/16 05:37:12;;;;;;;44.10;23.75;;;10.90;99.90;;;;;;6155642;23;20029;-82
2022/11/16 05:39:39;;;;;;;37.08;21.42;;;10.90;99.90;;;;;;6155391;23;20027;-83
2022/11/16 05:42:05;;;;;;;33.60;21.02;;;10.90;99.90;;;;;;6155852;23;20020;-83
2022/11/16 05:44:31;;;;;;;40.17;22.42;;;10.90;99.90;;;;;;6155231;23;20012;-82
2022/11/16 05:46:57;;;;;;;42.53;22.60;;;10.90;99.90;;;;;;6156706;23;20029;-82
2022/11/16 05:49:23;;;;;;;45.13;23.42;;;10.90;99.90;;;;;;6157155;23;20021;-84
2022/11/16 05:51:49;;;;;;;45.38;24.42;;;10.90;99.90;;;;;;6155133;23;20022;-82
2022/11/16 05:54:18;;;;;;;43.90;23.52;;;10.90;99.90;;;;;;6156668;23;20009;-82
2022/11/16 05:56:45;;;;;;;43.35;23.23;;;10.90;99.90;;;;;;6156388;23;20451;-84
2022/11/16 05:59:18;;;;;;;44.70;24.67;;;10.90;99.90;;;;;;6157062;23;20367;-82
2022/11/16 06:01:45;;;;;;;40.38;23.02;;;10.90;99.90;;;;;;6156123;23;20020;-82
2022/11/16 06:04:11;;;;;;;49.88;24.05;;;10.90;99.90;;;;;;6155580;23;20392;-84
2022/11/16 06:06:37;;;;;;;38.72;21.38;;;10.90;99.90;;;;;;6156406;23;20462;-83
2022/11/16 06:09:03;;;;;;;37.25;20.50;;;10.90;99.90;;;;;;6154844;23;20390;-84
2022/11/16 06:11:29;;;;;;;40.10;21.25;;;11.00;99.90;;;;;;6154836;23;20096;-80
2022/11/16 06:13:55;;;;;;;38.42;20.10;;;11.00;99.90;;;;;;6156907;23;20009;-83
2022/11/16 06:16:21;;;;;;;26.90;17.05;;;11.00;99.90;;;;;;6154803;23;20024;-80
2022/11/16 06:18:47;;;;;;;32.17;17.10;;;11.00;99.90;;;;;;6155254;23;20013;-82
2022/11/16 06:21:14;;;;;;;26.48;14.95;;;11.00;99.90;;;;;;6155002;23;20022;-83
2022/11/16 06:23:40;;;;;;;22.40;12.73;;;10.90;99.90;;;;;;6130019;23;20459;-82
2022/11/16 06:26:06;;;;;;;24.58;13.93;;;10.90;99.90;;;;;;6154876;23;20013;-82
2022/11/16 06:28:32;;;;;;;21.83;12.50;;;10.90;99.90;;;;;;6156230;23;20009;-82
2022/11/16 06:30:58;;;;;;;23.10;13.68;;;10.90;99.90;;;;;;6130087;23;20023;-83
2022/11/16 06:33:24;;;;;;;18.73;12.00;;;10.80;99.90;;;;;;6155270;23;20406;-82
2022/11/16 06:35:50;;;;;;;18.73;11.70;;;10.80;99.90;;;;;;6154510;23;20017;-84
2022/11/16 06:38:18;;;;;;;24.50;13.70;;;10.80;99.90;;;;;;6154620;23;20025;-82
2022/11/16 06:40:52;;;;;;;26.73;14.88;;;10.80;99.90;;;;;;6156567;23;20067;-81
2022/11/16 06:43:18;;;;;;;34.28;17.05;;;10.80;99.90;;;;;;6154609;23;20095;-81
2022/11/16 06:45:48;;;;;;;40.35;16.67;;;10.80;99.90;;;;;;6154227;23;20088;-82
2022/11/16 06:48:14;;;;;;;32.88;16.80;;;10.80;99.90;;;;;;6129933;23;20463;-84
2022/11/16 06:50:39;;;;;;;38.20;16.73;;;10.80;99.90;;;;;;6155912;23;20023;-82
2022/11/16 06:53:05;;;;;;;33.10;14.57;;;10.70;99.90;;;;;;6130016;23;20019;-86
2022/11/16 06:55:31;;;;;;;25.88;12.25;;;10.70;99.90;;;;;;6154610;23;20029;-83
2022/11/16 06:57:56;;;;;;;26.30;11.85;;;10.70;99.90;;;;;;6156432;23;20018;-83
2022/11/16 07:00:22;;;;;;;20.83;11.20;;;10.70;99.90;;;;;;6154187;23;20016;-82
2022/11/16 07:02:48;;;;;;;23.88;10.63;;;10.60;99.90;;;;;;6154842;23;20053;-83
2022/11/16 07:05:14;;;;;;;23.98;10.80;;;10.60;99.90;;;;;;6154793;23;20371;-81
2022/11/16 07:07:39;;;;;;;24.73;10.23;;;10.60;99.90;;;;;;6156152;23;20013;-82
2022/11/16 07:10:05;;;;;;;26.20;10.70;;;10.60;99.90;;;;;;6154213;23;20022;-82
2022/11/16 07:12:31;;;;;;;21.02;9.93;;;10.60;99.90;;;;;;6129655;23;20017;-81
2022/11/16 07:14:57;;;;;;;23.45;9.57;;;10.50;99.90;;;;;;6155265;23;20183;-83
2022/11/16 07:17:22;;;;;;;21.38;9.98;;;10.50;99.90;;;;;;6158117;23;20443;-82
2022/11/16 07:19:48;;;;;;;21.70;9.93;;;10.50;99.90;;;;;;6156345;23;20013;-82
2022/11/16 07:22:13;;;;;;;29.30;10.13;;;10.50;99.90;;;;;;6156643;23;20072;-82
2022/11/16 07:24:39;;;;;;;22.13;9.43;;;10.50;99.90;;;;;;6156263;23;20313;-83
2022/11/16 07:27:07;;;;;;;17.52;8.48;;;10.50;99.90;;;;;;6155927;23;20021;-83
2022/11/16 07:29:33;;;;;;;22.25;9.18;;;10.50;99.90;;;;;;6157832;23;20021;-83
2022/11/16 07:31:58;;;;;;;29.77;11.70;;;10.40;99.90;;;;;;6157690;23;20443;-81
2022/11/16 07:34:25;;;;;;;23.33;10.35;;;10.40;99.90;;;;;;6156736;23;20017;-83
2022/11/16 07:36:50;;;;;;;25.15;10.90;;;10.40;99.90;;;;;;6156584;23;20013;-82
2022/11/16 07:39:16;;;;;;;30.27;12.40;;;10.40;99.90;;;;;;6154854;23;20017;-82
2022/11/16 07:41:43;;;;;;;36.53;14.10;;;10.40;99.90;;;;;;6154671;23;20022;-80
2022/11/16 07:44:09;;;;;;;44.45;17.00;;;10.40;99.90;;;;;;6154838;23;20084;-81
2022/11/16 07:46:34;;;;;;;40.33;16.52;;;10.40;99.90;;;;;;6156641;23;20010;-82
2022/11/16 07:49:00;;;;;;;40.83;16.15;;;10.40;99.90;;;;;;6154646;23;20043;-82
2022/11/16 07:51:26;;;;;;;40.95;16.77;;;10.40;99.90;;;;;;6154410;23;20024;-83
2022/11/16 07:53:56;;;;;;;44.42;17.08;;;10.40;99.90;;;;;;6154430;23;20022;-81
2022/11/16 07:56:22;;;;;;;44.83;18.38;;;10.40;99.90;;;;;;6154745;23;20089;-79
2022/11/16 07:58:48;;;;;;;42.20;16.73;;;10.40;99.90;;;;;;6155035;23;20047;-81
2022/11/16 08:01:16;;;;;;;50.33;18.75;;;10.40;99.90;;;;;;6156042;23;20447;-82
2022/11/16 08:03:43;;;;;;;49.60;18.10;;;10.40;99.90;;;;;;6156528;23;20013;-83
2022/11/16 08:06:19;;;;;;;65.75;20.60;;;10.40;99.90;;;;;;6154203;23;20080;-86
2022/11/16 08:08:45;;;;;;;45.55;18.45;;;10.40;99.90;;;;;;6154124;23;20017;-82
2022/11/16 08:11:12;;;;;;;53.33;18.95;;;10.40;99.90;;;;;;6154147;23;20063;-83
2022/11/16 08:13:39;;;;;;;49.75;19.35;;;10.40;99.90;;;;;;6130208;23;20021;-82
2022/11/16 08:16:13;;;;;;;56.53;19.92;;;10.40;99.90;;;;;;6153376;23;20013;-83
2022/11/16 08:18:40;;;;;;;48.90;20.08;;;10.40;99.90;;;;;;6153201;23;20085;-82
2022/11/16 08:21:09;;;;;;;55.90;20.25;;;10.50;99.90;;;;;;6154059;23;20037;-84
2022/11/16 08:23:34;;;;;;;46.85;19.63;;;10.50;99.90;;;;;;6156554;23;20006;-81
2022/11/16 08:26:06;;;;;;;57.15;19.73;;;10.50;99.90;;;;;;6129720;23;20089;-83
2022/11/16 08:28:32;;;;;;;45.03;19.17;;;10.50;99.90;;;;;;6157310;23;20052;-81
2022/11/16 08:30:58;;;;;;;48.90;19.65;;;10.50;99.90;;;;;;6155381;23;20017;-79
2022/11/16 08:33:25;;;;;;;46.00;18.20;;;10.60;99.90;;;;;;6155772;23;20084;-81
2022/11/16 08:35:53;;;;;;;47.38;19.73;;;10.60;99.90;;;;;;6155654;23;20013;-84
2022/11/16 08:38:19;;;;;;;43.50;18.23;;;10.60;99.90;;;;;;6155914;23;20056;-82
2022/11/16 08:40:44;;;;;;;45.15;18.73;;;10.60;99.90;;;;;;6155331;23;20017;-80
2022/11/16 08:43:10;;;;;;;44.42;18.98;;;10.70;99.90;;;;;;6155862;23;20456;-83
2022/11/16 08:45:37;;;;;;;51.05;19.95;;;10.70;99.90;;;;;;6155579;23;20032;-80
2022/11/16 08:48:04;;;;;;;45.58;18.67;;;10.70;99.90;;;;;;6157179;23;20064;-80
2022/11/16 08:50:29;;;;;;;48.28;20.15;;;10.70;99.90;;;;;;6155145;23;20480;-82
2022/11/16 08:52:59;;;;;;;40.20;18.77;;;10.70;99.90;;;;;;6156990;23;20006;-82
2022/11/16 08:55:25;;;;;;;43.35;18.88;;;10.80;99.90;;;;;;6155180;23;20017;-81
2022/11/16 08:57:51;;;;;;;36.38;17.77;;;10.90;99.90;;;;;;6155283;23;20017;-82
2022/11/16 09:00:17;;;;;;;43.33;19.35;;;10.90;99.90;;;;;;6157006;23;20009;-79
2022/11/16 09:02:43;;;;;;;43.83;18.75;;;10.90;99.90;;;;;;6156641;23;20344;-83
2022/11/16 09:05:10;;;;;;;40.95;18.67;;;10.90;99.90;;;;;;6155358;23;20071;-80
2022/11/16 09:07:42;;;;;;;45.80;18.77;;;10.90;99.90;;;;;;6155308;23;20063;-82
2022/11/16 09:10:08;;;;;;;41.65;18.92;;;11.00;99.90;;;;;;6155227;23;20567;-82
2022/11/16 09:12:35;;;;;;;38.22;18.02;;;11.00;99.90;;;;;;6155386;23;20352;-80
2022/11/16 09:15:01;;;;;;;37.13;19.02;;;11.00;99.90;;;;;;6156077;23;20024;-78
2022/11/16 09:17:27;;;;;;;36.65;18.08;;;11.00;99.90;;;;;;6155697;23;20017;-79
2022/11/16 09:19:52;;;;;;;37.08;18.92;;;11.10;99.90;;;;;;6130496;23;20057;-79
2022/11/16 09:22:18;;;;;;;40.15;19.38;;;11.20;99.90;;;;;;6154937;23;20017;-82
2022/11/16 09:24:43;;;;;;;39.70;19.63;;;11.20;99.90;;;;;;6155147;23;20013;-79
2022/11/16 09:27:09;;;;;;;37.30;18.23;;;11.20;99.90;;;;;;6155165;23;20461;-78
2022/11/16 09:29:35;;;;;;;32.08;16.95;;;11.20;99.90;;;;;;6155121;23;20013;-83
2022/11/16 09:32:01;;;;;;;37.63;18.10;;;11.20;99.90;;;;;;6155065;23;20017;-80
2022/11/16 09:34:27;;;;;;;35.38;19.13;;;11.20;99.90;;;;;;6155154;23;20025;-82
2022/11/16 09:36:53;;;;;;;39.05;18.25;;;11.20;99.90;;;;;;6155084;23;20021;-80
2022/11/16 09:39:18;;;;;;;29.70;16.35;;;11.30;99.90;;;;;;6130335;23;20060;-81
2022/11/16 09:41:50;;;;;;;35.00;17.77;;;11.30;99.90;;;;;;6156614;23;20021;-81
2022/11/16 09:44:34;;;;;;;34.72;17.45;;;11.40;99.90;;;;;;6155027;23;20447;-82
2022/11/16 09:47:01;;;;;;;33.72;18.60;;;11.40;99.90;;;;;;6154998;23;20515;-81
2022/11/16 09:49:39;;;;;;;26.58;16.73;;;11.50;99.90;;;;;;6156154;23;20017;-80
2022/11/16 09:52:28;;;;;;;31.13;16.05;;;11.50;99.90;;;;;;6154765;23;20347;-80
2022/11/16 09:54:56;;;;;;;27.92;15.73;;;11.50;99.90;;;;;;6155444;23;20049;-83
2022/11/16 09:57:28;;;;;;;27.27;14.15;;;11.50;99.90;;;;;;6155107;23;20507;-81
2022/11/16 09:59:57;;;;;;;21.92;12.88;;;11.50;99.90;;;;;;6154574;23;20096;-82
2022/11/16 10:02:47;;;;;;;21.35;11.90;;;11.40;99.90;;;;;;6156175;23;20020;-79
2022/11/16 10:05:26;;;;;;;23.70;11.23;;;11.40;99.90;;;;;;6156604;23;20065;-82
2022/11/16 10:08:00;;;;;;;20.35;10.45;;;11.40;99.90;;;;;;6154680;23;20043;-81
2022/11/16 10:11:03;;;;;;;20.05;10.57;;;11.40;99.90;;;;;;6156218;23;20024;-78
2022/11/16 10:13:47;;;;;;;16.50;9.52;;;11.40;99.90;;;;;;6154653;23;20017;-79
2022/11/16 10:16:22;;;;;;;17.90;9.30;;;11.40;99.90;;;;;;6156318;23;20014;-78
2022/11/16 10:18:58;;;;;;;19.42;9.95;;;11.30;99.90;;;;;;6154546;23;20021;-80
2022/11/16 10:21:42;;;;;;;18.48;10.80;;;11.50;99.90;;;;;;6156008;23;20056;-81
2022/11/16 10:24:38;;;;;;;18.48;10.35;;;11.70;99.90;;;;;;6154779;23;20018;-80
2022/11/16 10:27:12;;;;;;;17.27;10.30;;;11.90;99.90;;;;;;6146456;23;20010;-82
2022/11/16 10:29:41;;;;;;;19.92;9.60;;;12.00;99.90;;;;;;6156469;23;20502;-80
2022/11/16 10:32:27;;;;;;;18.13;9.57;;;12.00;99.90;;;;;;6154700;23;20017;-80
2022/11/16 10:35:00;;;;;;;14.75;8.98;;;12.10;99.90;;;;;;6156833;23;20340;-79
2022/11/16 10:37:35;;;;;;;13.60;8.55;;;12.20;99.90;;;;;;6154502;23;20092;-79
2022/11/16 10:40:25;;;;;;;17.10;8.18;;;12.40;99.90;;;;;;6155092;23;20010;-79
2022/11/16 10:43:26;;;;;;;12.65;7.40;;;12.60;99.90;;;;;;6154652;23;20024;-77
2022/11/16 10:46:31;;;;;;;14.20;6.78;;;12.80;99.90;;;;;;6092533;23;20017;-77
2022/11/16 10:49:06;;;;;;;12.70;8.23;;;12.90;99.90;;;;;;6065767;23;20085;-79
2022/11/16 10:51:31;;;;;;;16.13;8.48;;;12.90;99.90;;;;;;6145227;23;20013;-78
2022/11/16 10:53:57;;;;;;;15.18;7.82;;;12.90;99.90;;;;;;6129687;23;20450;-81
2022/11/16 10:56:36;;;;;;;14.90;8.05;;;12.80;99.90;;;;;;6154328;23;20075;-80
2022/11/16 10:59:07;;;;;;;14.90;7.72;;;12.70;99.90;;;;;;6130000;23;20454;-80
2022/11/16 11:01:42;;;;;;;12.23;6.97;;;12.60;99.90;;;;;;6129853;23;20021;-80
2022/11/16 11:04:14;;;;;;;11.00;6.30;;;12.70;99.90;;;;;;6154329;23;20344;-81
2022/11/16 11:06:40;;;;;;;16.35;7.00;;;12.70;99.90;;;;;;6154216;23;20010;-80
2022/11/16 11:09:20;;;;;;;12.82;6.80;;;12.60;99.90;;;;;;6154094;23;20443;-81
2022/11/16 11:15:21;;;;;;;13.00;6.28;;;12.10;99.90;;;;;;6154053;23;20422;-78
2022/11/16 11:17:49;;;;;;;16.05;6.50;;;12.00;99.90;;;;;;6094193;23;20024;-77
2022/11/16 11:20:15;;;;;;;12.35;6.28;;;12.00;99.90;;;;;;6156296;23;20021;-78
2022/11/16 11:22:42;;;;;;;13.23;6.53;;;12.10;99.90;;;;;;6129475;23;20347;-80
2022/11/16 11:25:19;;;;;;;13.70;5.85;;;12.10;99.90;;;;;;6156019;23;20093;-78
2022/11/16 11:27:45;;;;;;;12.45;5.10;;;12.20;99.90;;;;;;6154452;23;20017;-77
2022/11/16 11:30:20;;;;;;;12.07;4.82;;;12.40;99.90;;;;;;6154188;23;20095;-78
2022/11/16 11:32:47;;;;;;;13.38;4.40;;;12.50;99.90;;;;;;6154199;23;20013;-79
2022/11/16 11:35:26;;;;;;;11.73;5.13;;;12.80;99.90;;;;;;6154543;23;20017;-81
2022/11/16 11:37:54;;;;;;;8.18;4.45;;;13.00;99.90;;;;;;6156302;23;20013;-80
2022/11/16 11:40:28;;;;;;;12.60;4.93;;;13.10;99.90;;;;;;6154074;23;20013;-81
2022/11/16 11:42:59;;;;;;;11.65;4.72;;;13.10;99.90;;;;;;6129675;23;20024;-80
2022/11/16 11:45:47;;;;;;;18.08;4.80;;;12.80;99.90;;;;;;6156050;23;20013;-81
2022/11/16 11:48:35;;;;;;;10.65;4.15;;;12.60;99.90;;;;;;6154187;23;20013;-79
2022/11/16 11:51:14;;;;;;;10.10;3.47;;;12.50;99.90;;;;;;6155404;23;20009;-79
2022/11/16 11:53:59;;;;;;;10.93;3.45;;;12.40;99.90;;;;;;6155985;23;20335;-80
2022/11/16 11:56:29;;;;;;;14.32;3.90;;;12.40;99.90;;;;;;6154252;23;20018;-78
2022/11/16 11:58:55;;;;;;;12.80;3.40;;;12.40;99.90;;;;;;6178968;23;20044;-78
2022/11/16 12:01:27;;;;;;;12.32;3.88;;;12.50;99.90;;;;;;6177911;23;20128;-79
2022/11/16 12:03:58;;;;;;;13.85;4.75;;;12.50;99.90;;;;;;6155643;23;20526;-79
2022/11/16 12:06:56;;;;;;;13.27;3.95;;;12.60;99.90;;;;;;6156052;23;20095;-78
2022/11/16 12:09:44;;;;;;;13.80;3.80;;;12.60;99.90;;;;;;6044615;23;20426;-78
2022/11/16 12:12:29;;;;;;;8.82;3.20;;;12.50;99.90;;;;;;6042920;23;20018;-78
2022/11/16 12:15:15;;;;;;;13.65;3.85;;;12.30;99.90;;;;;;6043610;23;20421;-78
2022/11/16 12:18:07;;;;;;;10.95;3.95;;;12.40;99.90;;;;;;6043310;23;20463;-77
2022/11/16 12:20:59;;;;;;;15.23;3.70;;;12.40;99.90;;;;;;6045180;23;20394;-79
2022/11/16 12:23:39;;;;;;;10.77;3.40;;;12.30;99.90;;;;;;6043313;23;20027;-81
2022/11/16 12:26:22;;;;;;;13.18;4.13;;;12.50;99.90;;;;;;6067328;23;20209;-77
2022/11/16 12:28:54;;;;;;;11.55;3.35;;;12.70;99.90;;;;;;6043746;23;20083;-80
2022/11/16 12:31:40;;;;;;;11.80;3.38;;;12.90;99.90;;;;;;6043278;23;20091;-78
2022/11/16 12:34:46;;;;;;;16.00;3.95;;;13.20;99.90;;;;;;6135205;23;20044;-79
2022/11/16 12:37:18;;;;;;;10.47;3.83;;;13.30;99.90;;;;;;6157256;23;20013;-78
2022/11/16 12:40:18;;;;;;;11.55;3.28;;;13.30;99.90;;;;;;6157500;23;20093;-78
2022/11/16 12:42:53;;;;;;;10.80;3.30;;;13.30;99.90;;;;;;6155565;23;20048;-79
2022/11/16 12:45:24;;;;;;;11.93;3.08;;;13.20;99.90;;;;;;6155688;23;20121;-80
2022/11/16 12:48:08;;;;;;;11.90;3.28;;;13.10;99.90;;;;;;6156077;23;20037;-79
2022/11/16 12:50:56;;;;;;;12.40;3.33;;;13.10;99.90;;;;;;6155645;23;20056;-81
2022/11/16 12:54:10;;;;;;;13.63;3.30;;;13.00;99.90;;;;;;6157367;23;20014;-79
2022/11/16 12:57:04;;;;;;;10.38;3.40;;;12.80;99.90;;;;;;6149638;23;20013;-80
2022/11/16 12:59:48;;;;;;;13.98;3.22;;;12.60;99.90;;;;;;6155558;23;20020;-82
2022/11/16 13:02:30;;;;;;;9.75;3.00;;;12.70;99.90;;;;;;6155497;23;20094;-79
2022/11/16 13:05:03;;;;;;;8.88;3.20;;;12.60;99.90;;;;;;6156425;23;20018;-79
2022/11/16 13:07:37;;;;;;;16.75;2.83;;;12.40;99.90;;;;;;6155423;23;20013;-80
2022/11/16 13:10:20;;;;;;;9.80;3.15;;;12.30;99.90;;;;;;6157398;23;20029;-78
2022/11/16 13:12:50;;;;;;;11.25;3.00;;;12.30;99.90;;;;;;6156839;23;20005;-81
2022/11/16 13:15:19;;;;;;;11.00;3.30;;;12.30;99.90;;;;;;6155363;23;20010;-81
2022/11/16 13:18:00;;;;;;;15.32;3.05;;;12.60;99.90;;;;;;6155709;23;20467;-80
2022/11/16 13:20:35;;;;;;;11.55;2.72;;;12.90;99.90;;;;;;6156712;23;20453;-79
2022/11/16 13:23:17;;;;;;;12.93;3.60;;;13.20;99.90;;;;;;6155355;23;20024;-80
2022/11/16 13:26:10;;;;;;;14.80;3.03;;;13.50;99.90;;;;;;6155249;23;20450;-80
2022/11/16 13:28:50;;;;;;;12.93;2.95;;;14.00;99.90;;;;;;6155266;23;20010;-80
2022/11/16 13:31:40;;;;;;;14.57;3.10;;;14.20;99.90;;;;;;6157184;23;20014;-80
2022/11/16 13:34:14;;;;;;;15.27;3.42;;;14.30;99.90;;;;;;6153954;23;20020;-80
2022/11/16 13:36:42;;;;;;;16.58;4.00;;;14.30;99.90;;;;;;6155109;23;20009;-80
2022/11/16 13:39:10;;;;;;;10.73;2.72;;;14.30;99.90;;;;;;6156907;23;20014;-82
2022/11/16 13:41:38;;;;;;;11.95;3.38;;;14.30;99.90;;;;;;6130658;23;20013;-81
2022/11/16 13:44:11;;;;;;;10.48;2.83;;;14.30;99.90;;;;;;6155072;23;20013;-81
2022/11/16 13:46:44;;;;;;;11.25;2.13;;;14.20;99.90;;;;;;6179913;23;20013;-79
2022/11/16 13:49:27;;;;;;;12.43;2.42;;;14.20;99.90;;;;;;6131209;23;20091;-80
2022/11/16 13:51:59;;;;;;;12.80;3.25;;;14.10;99.90;;;;;;6155421;23;20013;-81
2022/11/16 13:54:45;;;;;;;8.82;2.13;;;14.10;99.90;;;;;;6155510;23;20096;-80
2022/11/16 13:57:32;;;;;;;10.68;2.10;;;14.10;99.90;;;;;;6155737;23;20028;-80
2022/11/16 14:00:00;;;;;;;9.15;2.15;;;14.20;99.90;;;;;;6157016;23;20477;-82
2022/11/16 14:02:33;;;;;;;10.48;2.33;;;14.40;99.90;;;;;;6154787;23;20035;-80
2022/11/16 14:05:11;;;;;;;13.30;2.50;;;14.60;99.90;;;;;;6155085;23;20013;-81
2022/11/16 14:07:45;;;;;;;14.07;2.45;;;14.80;99.90;;;;;;6156716;23;20014;-82
2022/11/16 14:10:31;;;;;;;15.00;2.10;;;15.10;99.90;;;;;;6154913;23;20044;-81
2022/11/16 14:13:00;;;;;;;10.52;2.05;;;15.30;99.90;;;;;;6130240;23;20101;-79
2022/11/16 14:15:34;;;;;;;8.25;1.88;;;15.50;99.90;;;;;;6156881;23;20009;-80
2022/11/16 14:18:02;;;;;;;10.73;2.20;;;15.40;99.90;;;;;;6154534;23;20336;-80
2022/11/16 14:20:36;;;;;;;13.10;2.13;;;15.10;99.90;;;;;;6154357;23;20016;-80
2022/11/16 14:23:15;;;;;;;10.63;2.00;;;14.80;99.90;;;;;;6130360;23;20013;-80
2022/11/16 14:26:01;;;;;;;10.77;2.22;;;14.50;99.90;;;;;;6156333;23;20261;-80
2022/11/16 14:28:48;;;;;;;14.02;2.38;;;14.20;99.90;;;;;;6155902;23;20112;-79
2022/11/16 14:31:26;;;;;;;13.85;2.83;;;14.00;99.90;;;;;;6130788;23;20013;-80
2022/11/16 14:33:55;;;;;;;12.95;3.05;;;13.60;99.90;;;;;;6156454;23;20076;-80
2022/11/16 14:36:39;;;;;;;16.48;2.35;;;13.30;99.90;;;;;;6157378;23;20061;-80
2022/11/16 14:39:38;;;;;;;15.93;2.20;;;13.10;99.90;;;;;;6155672;23;20005;-80
2022/11/16 14:42:15;;;;;;;10.70;2.25;;;12.90;99.90;;;;;;6155633;23;20089;-80
2022/11/16 14:44:41;;;;;;;11.93;2.25;;;12.70;99.90;;;;;;6155845;23;20388;-82
2022/11/16 14:47:23;;;;;;;13.48;2.28;;;12.60;99.90;;;;;;6155894;23;20068;-83
2022/11/16 14:49:49;;;;;;;12.95;2.63;;;12.60;99.90;;;;;;6157151;23;20017;-80
2022/11/16 14:52:19;;;;;;;9.70;1.90;;;12.50;99.90;;;;;;6157517;23;20064;-80
2022/11/16 14:54:52;;;;;;;20.10;2.92;;;12.50;99.90;;;;;;6157385;23;20017;-81
2022/11/16 14:57:20;;;;;;;10.63;2.70;;;12.40;99.90;;;;;;6130790;23;20025;-81
2022/11/16 14:59:46;;;;;;;11.43;2.00;;;12.40;99.90;;;;;;6155017;23;20018;-81
2022/11/16 15:02:20;;;;;;;15.70;2.30;;;12.30;99.90;;;;;;6154806;23;20017;-81
2022/11/16 15:04:46;;;;;;;14.23;1.90;;;12.10;99.90;;;;;;6154863;23;20063;-79
2022/11/16 15:07:13;;;;;;;14.60;2.47;;;12.00;99.90;;;;;;6156436;23;20006;-81
2022/11/16 15:09:44;;;;;;;13.75;2.30;;;11.90;99.90;;;;;;6156344;23;20331;-81
2022/11/16 15:15:12;;;;;;;13.80;2.00;;;11.70;99.90;;;;;;6164311;23;20025;-76
2022/11/16 15:17:43;;;;;;;11.85;2.25;;;11.50;99.90;;;;;;6161917;23;20451;-81
2022/11/16 15:20:16;;;;;;;16.40;3.00;;;11.40;99.90;;;;;;6157918;23;20013;-81
2022/11/16 15:22:44;;;;;;;11.43;2.38;;;11.40;99.90;;;;;;6158347;23;20379;-79
2022/11/16 15:25:41;;;;;;;10.45;2.35;;;11.30;99.90;;;;;;6180694;23;20010;-80
2022/11/16 15:28:28;;;;;;;20.23;2.80;;;11.20;99.90;;;;;;6155773;23;20014;-79
2022/11/16 15:30:59;;;;;;;16.50;3.15;;;11.10;99.90;;;;;;6131563;23;20069;-81
2022/11/16 15:33:39;;;;;;;13.70;2.45;;;11.10;99.90;;;;;;6156177;23;20455;-80
2022/11/16 15:36:24;;;;;;;12.82;3.22;;;11.00;99.90;;;;;;6157204;23;20092;-80
2022/11/16 15:38:53;;;;;;;15.65;2.97;;;10.90;99.90;;;;;;6156169;23;20474;-79
2022/11/16 15:41:19;;;;;;;14.75;2.88;;;10.90;99.90;;;;;;6158106;23;20020;-83
2022/11/16 15:43:54;;;;;;;18.58;2.60;;;10.80;99.90;;;;;;6156152;23;20387;-79
2022/11/16 15:46:20;;;;;;;17.38;3.72;;;10.70;99.90;;;;;;6155990;23;20013;-78
2022/11/16 15:48:47;;;;;;;13.07;2.88;;;10.60;99.90;;;;;;6157636;23;20391;-78
2022/11/16 15:51:18;;;;;;;12.20;3.25;;;10.60;99.90;;;;;;6156079;23;20017;-79
2022/11/16 15:53:52;;;;;;;12.52;3.03;;;10.60;99.90;;;;;;6180812;23;20017;-78
2022/11/16 15:56:25;;;;;;;14.90;3.50;;;10.50;99.90;;;;;;6131318;23;20018;-78
2022/11/16 15:58:53;;;;;;;14.13;3.50;;;10.40;99.90;;;;;;6155992;23;20064;-78
2022/11/16 16:01:20;;;;;;;13.55;3.60;;;10.40;99.90;;;;;;6157624;23;20017;-78
2022/11/16 16:04:01;;;;;;;12.77;3.75;;;10.40;99.90;;;;;;6155875;23;20010;-78
2022/11/16 16:06:50;;;;;;;12.48;3.70;;;10.30;99.90;;;;;;6155826;23;20009;-79
2022/11/16 16:09:31;;;;;;;13.35;3.50;;;10.30;99.90;;;;;;6157514;23;20403;-78
2022/11/16 16:12:17;;;;;;;18.98;4.60;;;10.20;99.90;;;;;;6157563;23;20009;-78
2022/11/16 16:14:43;;;;;;;15.13;2.88;;;10.20;99.90;;;;;;6157683;23;20080;-80
2022/11/16 16:17:19;;;;;;;14.45;3.60;;;10.10;99.90;;;;;;6155841;23;20427;-78
2022/11/16 16:20:02;;;;;;;11.65;2.80;;;10.10;99.90;;;;;;6155758;23;20084;-77
2022/11/16 16:22:34;;;;;;;13.93;3.50;;;10.10;99.90;;;;;;6155671;23;20512;-77
2022/11/16 16:25:00;;;;;;;16.75;3.47;;;10.10;99.90;;;;;;6157410;23;20016;-76
2022/11/16 16:27:28;;;;;;;12.80;2.90;;;10.10;99.90;;;;;;6155752;23;20013;-77
2022/11/16 16:29:56;;;;;;;10.30;2.60;;;10.10;99.90;;;;;;6131261;23;20017;-78
2022/11/16 16:32:28;;;;;;;11.18;2.70;;;10.10;99.90;;;;;;6180428;23;20080;-77
2022/11/16 16:34:57;;;;;;;9.45;2.90;;;10.10;99.90;;;;;;6157268;23;20313;-79
2022/11/16 16:37:25;;;;;;;14.02;3.33;;;10.10;99.90;;;;;;6155724;23;20390;-78
2022/11/16 16:39:51;;;;;;;12.43;2.55;;;10.00;99.90;;;;;;6180466;23;20048;-77
2022/11/16 16:42:17;;;;;;;13.02;2.53;;;10.00;99.90;;;;;;6155463;23;20065;-78
2022/11/16 16:44:46;;;;;;;13.82;3.30;;;10.00;99.90;;;;;;6157201;23;20016;-78
2022/11/16 16:47:13;;;;;;;11.77;3.40;;;9.90;99.90;;;;;;6155317;23;20014;-78
2022/11/16 16:49:39;;;;;;;13.65;3.08;;;9.90;99.90;;;;;;6157047;23;20010;-76
2022/11/16 16:52:05;;;;;;;14.52;3.28;;;9.80;99.90;;;;;;6155350;23;20071;-79
2022/11/16 16:54:31;;;;;;;14.38;3.75;;;9.80;99.90;;;;;;6180267;23;20063;-77
2022/11/16 16:56:57;;;;;;;14.18;3.22;;;9.80;99.90;;;;;;6155456;23;20088;-76
2022/11/16 16:59:24;;;;;;;11.05;3.83;;;9.70;99.90;;;;;;6155092;23;20080;-80
2022/11/16 17:01:55;;;;;;;12.38;3.40;;;9.70;99.90;;;;;;6155335;23;20020;-77
2022/11/16 17:04:24;;;;;;;9.95;2.85;;;9.70;99.90;;;;;;6155222;23;20093;-77
2022/11/16 17:06:51;;;;;;;15.07;3.47;;;9.60;99.90;;;;;;6155069;23;20435;-80
2022/11/16 17:09:17;;;;;;;13.75;3.78;;;9.60;99.90;;;;;;6155338;23;20133;-78
2022/11/16 17:11:42;;;;;;;10.82;3.08;;;9.60;99.90;;;;;;6155651;23;20017;-78
2022/11/16 17:14:08;;;;;;;14.75;3.58;;;9.50;99.90;;;;;;6155254;23;20018;-76
2022/11/16 17:16:34;;;;;;;14.55;3.10;;;9.50;99.90;;;;;;6155152;23;20021;-79
2022/11/16 17:19:01;;;;;;;14.02;3.80;;;9.50;99.90;;;;;;6180027;23;20013;-79
2022/11/16 17:21:26;;;;;;;11.13;3.15;;;9.50;99.90;;;;;;6155267;23;20014;-78
2022/11/16 17:23:53;;;;;;;13.07;3.30;;;9.50;99.90;;;;;;6157042;23;20301;-78
2022/11/16 17:26:19;;;;;;;14.18;3.10;;;9.50;99.90;;;;;;6157428;23;20021;-78
2022/11/16 17:28:45;;;;;;;11.00;3.47;;;9.50;99.90;;;;;;6156771;23;20017;-79
2022/11/16 17:31:12;;;;;;;13.05;3.78;;;9.40;99.90;;;;;;6156776;23;20017;-80
2022/11/16 17:33:40;;;;;;;12.35;3.35;;;9.40;99.90;;;;;;6155121;23;20017;-78
2022/11/16 17:36:08;;;;;;;9.13;3.17;;;9.40;99.90;;;;;;6179991;23;20017;-78